Time,TemperatureF,DewpointF,PressureIn,WindDirection,WindDirectionDegrees,WindSpeedMPH,WindSpeedGustMPH,Humidity,HourlyPrecipIn,Conditions,Clouds,dailyrainin,SoftwareType,DateUTC
2013-08-08 01:43:00,70.0,69.0,29.94,North,350,0.0,0.0,96,0.00,,,0.27,,2013-08-08 05:43:00,
2013-08-08 01:52:00,70.0,69.0,29.94,North,351,0.0,0.0,96,0.00,,,0.27,,2013-08-08 05:52:00,
2013-08-08 02:01:00,70.0,69.0,29.94,North,360,0.0,0.0,96,0.00,,,0.27,,2013-08-08 06:01:00,
2013-08-08 02:12:00,70.0,69.0,29.94,NNW,337,0.0,0.0,96,0.00,,,0.27,,2013-08-08 06:12:00,
2013-08-08 02:22:00,70.0,69.0,29.93,North,355,0.0,0.0,96,0.00,,,0.27,,2013-08-08 06:22:00,
2013-08-08 02:43:00,70.0,69.0,29.94,NNW,342,0.0,0.0,96,0.00,,,0.27,,2013-08-08 06:43:00,
2013-08-08 02:52:00,70.0,69.0,29.94,NNW,334,0.0,0.0,96,0.00,,,0.27,,2013-08-08 06:52:00,
2013-08-08 03:02:00,70.0,69.0,29.94,NNW,335,0.0,0.0,96,0.00,,,0.27,,2013-08-08 07:02:00,
2013-08-08 03:12:00,70.0,68.0,29.94,NNW,327,0.0,0.0,95,0.00,,,0.27,,2013-08-08 07:12:00,
2013-08-08 03:22:00,70.0,68.0,29.94,NNW,335,0.0,0.0,95,0.00,,,0.27,,2013-08-08 07:22:00,
2013-08-08 03:32:00,70.0,68.0,29.94,NNW,347,0.0,0.0,95,0.00,,,0.27,,2013-08-08 07:32:00,
2013-08-08 03:43:00,70.0,68.0,29.93,North,350,0.0,0.0,95,0.00,,,0.27,,2013-08-08 07:43:00,
2013-08-08 03:53:00,69.0,68.0,29.93,NNE,33,0.0,0.0,95,0.00,,,0.27,,2013-08-08 07:53:00,
2013-08-08 04:02:00,69.0,68.0,29.93,NNE,17,0.0,0.0,95,0.00,,,0.27,,2013-08-08 08:02:00,
2013-08-08 04:11:00,69.0,68.0,29.93,NNE,17,0.0,0.0,95,0.00,,,0.27,,2013-08-08 08:11:00,
2013-08-08 04:22:00,69.0,68.0,29.93,North,9,0.0,0.0,95,0.00,,,0.27,,2013-08-08 08:22:00,
2013-08-08 04:32:00,69.0,68.0,29.93,NNW,347,0.0,0.0,95,0.00,,,0.27,,2013-08-08 08:32:00,
2013-08-08 04:43:00,68.0,67.0,29.93,NW,316,0.0,0.0,95,0.00,,,0.27,,2013-08-08 08:43:00,
2013-08-08 04:53:00,68.0,67.0,29.93,NNW,336,0.0,0.0,95,0.00,,,0.27,,2013-08-08 08:53:00,
2013-08-08 05:02:00,68.0,66.0,29.93,NE,34,0.0,0.0,94,0.00,,,0.27,,2013-08-08 09:02:00,
2013-08-08 05:12:00,68.0,66.0,29.94,NNW,338,0.0,0.0,94,0.00,,,0.27,,2013-08-08 09:12:00,
2013-08-08 05:22:00,68.0,66.0,29.94,North,5,0.0,0.0,94,0.00,,,0.27,,2013-08-08 09:22:00,
2013-08-08 05:32:00,67.0,65.0,29.95,NE,35,0.0,0.0,94,0.00,,,0.27,,2013-08-08 09:32:00,
2013-08-08 06:01:00,67.0,65.0,29.95,North,11,0.0,0.0,94,0.00,,,0.27,,2013-08-08 10:01:00,
2013-08-08 06:52:00,66.0,64.0,29.96,North,9,0.0,0.0,94,0.00,,,0.27,,2013-08-08 10:52:00,
2013-08-08 07:02:00,66.0,64.0,29.95,North,350,0.0,0.0,94,0.00,,,0.27,,2013-08-08 11:02:00,
2013-08-08 07:43:00,66.0,64.0,29.96,ENE,70,3.0,8.0,93,0.00,,,0.27,,2013-08-08 11:43:00,
2013-08-08 07:52:00,65.0,63.0,29.96,North,11,2.0,8.0,93,0.00,,,0.27,,2013-08-08 11:52:00,
2013-08-08 08:32:00,66.0,64.0,29.96,NNE,32,3.0,9.0,93,0.00,,,0.27,,2013-08-08 12:32:00,
2013-08-08 08:43:00,67.0,64.0,29.96,North,11,3.0,10.0,91,0.00,,,0.27,,2013-08-08 12:43:00,
2013-08-08 08:52:00,67.0,64.0,29.96,North,5,3.0,10.0,90,0.00,,,0.27,,2013-08-08 12:52:00,
2013-08-08 09:01:00,67.0,64.0,29.96,NNW,332,6.0,11.0,89,0.00,,,0.27,,2013-08-08 13:01:00,
2013-08-08 09:22:00,67.0,64.0,29.96,ENE,62,4.0,9.0,89,0.00,,,0.27,,2013-08-08 13:22:00,
2013-08-08 09:43:00,68.0,64.0,29.97,ENE,71,3.0,6.0,87,0.00,,,0.27,,2013-08-08 13:43:00,
2013-08-08 09:52:00,69.0,65.0,29.98,NNW,341,4.0,8.0,87,0.00,,,0.27,,2013-08-08 13:52:00,
2013-08-08 10:02:00,69.0,65.0,29.98,NE,51,0.0,6.0,87,0.00,,,0.27,,2013-08-08 14:02:00,
2013-08-08 10:22:00,70.0,66.0,29.99,NE,34,1.0,8.0,87,0.00,,,0.27,,2013-08-08 14:22:00,
2013-08-08 10:43:00,71.0,66.0,30.01,East,91,2.0,5.0,84,0.00,,,0.27,,2013-08-08 14:43:00,
2013-08-08 10:53:00,71.0,66.0,30.01,North,5,3.0,5.0,84,0.00,,,0.27,,2013-08-08 14:53:00,
2013-08-08 11:02:00,71.0,66.0,30.00,ENE,61,2.0,4.0,85,0.00,,,0.27,,2013-08-08 15:02:00,
2013-08-08 11:12:00,71.0,66.0,30.00,NE,35,3.0,7.0,85,0.00,,,0.27,,2013-08-08 15:12:00,
2013-08-08 11:22:00,71.0,66.0,30.00,NE,56,3.0,8.0,85,0.00,,,0.27,,2013-08-08 15:22:00,
2013-08-08 11:43:00,72.0,68.0,29.98,North,9,3.0,8.0,86,0.00,,,0.27,,2013-08-08 15:43:00,
2013-08-08 11:53:00,71.0,66.0,29.98,NNE,17,4.0,11.0,84,0.00,,,0.27,,2013-08-08 15:53:00,
2013-08-08 12:02:00,72.0,67.0,29.99,NNE,17,4.0,9.0,84,0.00,,,0.27,,2013-08-08 16:02:00,
2013-08-08 12:32:00,73.0,67.0,29.99,NE,34,5.0,10.0,81,0.00,,,0.27,,2013-08-08 16:32:00,
2013-08-08 12:42:00,73.0,67.0,30.00,ENE,75,3.0,8.0,82,0.00,,,0.27,,2013-08-08 16:42:00,
2013-08-08 13:43:00,74.0,68.0,29.99,NNE,18,3.0,9.0,81,0.00,,,0.27,,2013-08-08 17:43:00,
2013-08-08 13:52:00,74.0,68.0,29.99,NNW,344,3.0,9.0,81,0.00,,,0.27,,2013-08-08 17:52:00,
2013-08-08 14:32:00,76.0,69.0,29.98,North,355,2.0,6.0,79,0.00,,,0.27,,2013-08-08 18:32:00,
2013-08-08 14:43:00,75.0,68.0,29.98,ENE,59,1.0,7.0,79,0.00,,,0.27,,2013-08-08 18:43:00,
2013-08-08 14:52:00,76.0,69.0,29.98,NE,46,1.0,4.0,78,0.00,,,0.27,,2013-08-08 18:52:00,
2013-08-08 15:01:00,76.0,68.0,29.98,NE,55,1.0,4.0,76,0.00,,,0.27,,2013-08-08 19:01:00,
2013-08-08 15:12:00,75.0,68.0,29.98,North,355,2.0,5.0,79,0.00,,,0.27,,2013-08-08 19:12:00,
2013-08-08 15:43:00,75.0,68.0,29.97,ENE,63,3.0,5.0,78,0.00,,,0.27,,2013-08-08 19:43:00,
2013-08-08 15:55:00,75.0,68.0,29.96,ENE,75,3.0,6.0,78,0.00,,,0.27,,2013-08-08 19:55:00,
2013-08-08 16:02:00,76.0,68.0,29.96,ENE,69,3.0,7.0,77,0.00,,,0.27,,2013-08-08 20:02:00,
2013-08-08 16:32:00,76.0,68.0,29.95,NE,42,2.0,5.0,76,0.00,,,0.27,,2013-08-08 20:32:00,
2013-08-08 16:42:00,76.0,68.0,29.96,NNE,14,2.0,6.0,76,0.00,,,0.27,,2013-08-08 20:42:00,
2013-08-08 17:01:00,76.0,69.0,29.96,NNE,13,2.0,4.0,79,0.00,,,0.27,,2013-08-08 21:01:00,
2013-08-08 17:53:00,76.0,68.0,29.96,NE,34,3.0,6.0,76,0.00,,,0.27,,2013-08-08 21:53:00,
2013-08-08 18:47:00,76.0,68.0,29.96,NNE,24,2.0,8.0,76,0.00,,,0.00,,2013-08-08 22:47:00,
2013-08-08 19:05:00,76.0,68.0,29.96,NE,38,2.0,6.0,76,0.00,,,0.00,,2013-08-08 23:05:00,
2013-08-08 19:46:00,75.0,68.0,29.95,NE,49,2.0,6.0,79,0.00,,,0.00,,2013-08-08 23:46:00,
2013-08-08 20:05:00,74.0,68.0,29.96,North,360,1.0,4.0,81,0.00,,,0.00,,2013-08-09 00:05:00,
2013-08-08 20:14:00,74.0,68.0,29.95,ENE,78,2.0,5.0,81,0.00,,,0.00,,2013-08-09 00:14:00,
2013-08-08 20:24:00,74.0,68.0,29.95,ENE,69,1.0,5.0,81,0.00,,,0.00,,2013-08-09 00:24:00,
2013-08-08 20:34:00,74.0,68.0,29.96,NE,36,1.0,5.0,81,0.00,,,0.00,,2013-08-09 00:34:00,
2013-08-08 20:45:00,73.0,67.0,29.96,NE,42,1.0,3.0,81,0.00,,,0.00,,2013-08-09 00:45:00,
2013-08-08 21:03:00,73.0,68.0,29.96,NE,40,0.0,3.0,83,0.00,,,0.00,,2013-08-09 01:03:00,
2013-08-08 21:25:00,72.0,67.0,29.96,NW,319,0.0,1.0,84,0.00,,,0.00,,2013-08-09 01:25:00,
2013-08-08 21:35:00,72.0,67.0,29.97,NW,319,0.0,1.0,84,0.00,,,0.00,,2013-08-09 01:35:00,
2013-08-08 22:04:00,72.0,67.0,29.98,NNW,342,2.0,5.0,85,0.00,,,0.00,,2013-08-09 02:04:00,
2013-08-08 22:46:00,71.0,66.0,29.98,NE,34,1.0,3.0,83,0.00,,,0.00,,2013-08-09 02:46:00,
2013-08-08 22:55:00,71.0,66.0,29.98,NNE,25,0.0,3.0,83,0.00,,,0.00,,2013-08-09 02:55:00,